Terminal Aerodrome Forecast
Issued by NWS

Home | Current Version | Previous Version | Text Only | Print | Product List | Glossary On
Versions: 1 2 3 4 5 6 7 8 9 10 11 12
000
FTAK31 PAJN 242300
TAFAPG
TAF
PAPG 242329Z 2500/2524 21008KT P6SM -SHRA SCT025 BKN040 OVC050
      TEMPO 2500/2504 21012G20KT
     FM250400 VRB03KT P6SM -SHRA SCT025 OVC035
     FM250900 00000KT P6SM -SHRA FEW008 SCT020 OVC030
     FM251400 08004KT 6SM -RA BR FEW010 OVC025
     FM251700 12011KT 6SM -RA BR SCT010 OVC020
      AMD LTD TO CLD VIS AND WIND 2506/2515=

USA.gov is the U.S. government's official web portal to all federal, state and local government web resources and services.